Terminal Aerodrome Forecast
Issued by NWS

Home | Current Version | Previous Version | Text Only | Print | Product List | Glossary On
Versions: 1 2 3 4 5 6 7 8 9 10 11 12 13
000
FTUS45 KABQ 021139
TAFAEG
TAF
KAEG 021139Z 0212/0312 VRB06KT P6SM BKN100
     FM021900 24009KT P6SM VCSH SCT070 BKN100
     FM022300 26010G20KT P6SM VCTS BKN070CB
     FM030200 31008KT P6SM BKN100
     FM030900 31005KT P6SM BKN100=

USA.gov is the U.S. government's official web portal to all federal, state and local government web resources and services.